Time;durP1;ratioP1;P1;durP2;ratioP2;P2;SDS_P1;SDS_P2;PMS_P1;PMS_P2;Temp;Humidity;BMP_temperature;BMP_pressure;BME280_temperature;BME280_humidity;BME280_pressure;Samples;Min_cycle;Max_cycle;Signal;HPM_P1;HPM_P2
2022/04/16 00:01:24;;;;;;;118.03;107.43;;;10.40;92.70;;;;;;5016940;28;20049;-79
2022/04/16 00:03:51;;;;;;;122.05;111.13;;;10.40;92.70;;;;;;5014988;28;20050;-79
2022/04/16 00:06:18;;;;;;;118.80;108.20;;;10.40;92.60;;;;;;5034601;28;20056;-79
2022/04/16 00:08:46;;;;;;;119.90;108.90;;;10.40;92.50;;;;;;5015010;28;20061;-79
2022/04/16 00:11:13;;;;;;;118.18;107.45;;;10.30;92.50;;;;;;5023475;28;20052;-79
2022/04/16 00:13:41;;;;;;;119.25;108.45;;;10.30;92.50;;;;;;5015100;28;20053;-79
2022/04/16 00:16:09;;;;;;;119.88;108.88;;;10.30;92.50;;;;;;5014945;28;20489;-79
2022/04/16 00:18:36;;;;;;;120.13;109.13;;;10.30;92.50;;;;;;5005232;28;20056;-79
2022/04/16 00:21:04;;;;;;;119.70;108.70;;;10.20;92.50;;;;;;5001306;28;20157;-79
2022/04/16 00:23:31;;;;;;;119.45;108.35;;;10.20;92.40;;;;;;5040611;28;20054;-79
2022/04/16 00:26:00;;;;;;;121.13;110.22;;;10.20;92.40;;;;;;4998249;28;20133;-79
2022/04/16 00:28:27;;;;;;;116.10;105.45;;;10.20;92.30;;;;;;5019314;28;20112;-79
2022/04/16 00:30:56;;;;;;;121.50;110.10;;;10.10;92.30;;;;;;5021996;28;20046;-79
2022/04/16 00:33:25;;;;;;;119.40;108.25;;;10.00;92.50;;;;;;5016233;28;20509;-79
2022/04/16 00:35:52;;;;;;;118.35;107.65;;;10.00;92.30;;;;;;5022901;28;20567;-79
2022/04/16 00:38:19;;;;;;;120.68;109.68;;;9.90;92.30;;;;;;5021460;28;20504;-79
2022/04/16 00:40:46;;;;;;;119.90;108.63;;;9.80;92.40;;;;;;5041913;28;20551;-79
2022/04/16 00:43:22;;;;;;;119.90;108.85;;;9.70;92.50;;;;;;5017879;28;20576;-78
2022/04/16 00:45:49;;;;;;;121.35;110.07;;;9.60;92.60;;;;;;5018419;28;20579;-79
2022/04/16 00:48:16;;;;;;;120.60;109.40;;;9.50;92.80;;;;;;5016643;28;20156;-79
2022/04/16 00:50:44;;;;;;;120.32;109.35;;;9.40;93.00;;;;;;5022197;28;20076;-79
2022/04/16 00:53:12;;;;;;;118.80;107.65;;;9.40;93.00;;;;;;5024250;28;20050;-79
2022/04/16 00:55:39;;;;;;;120.47;109.38;;;9.40;93.10;;;;;;5032064;28;20054;-79
2022/04/16 00:58:07;;;;;;;120.75;109.65;;;9.40;93.10;;;;;;5017985;28;20057;-79
2022/04/16 01:00:35;;;;;;;120.43;109.35;;;9.40;93.10;;;;;;5004059;28;20144;-79
2022/04/16 01:03:02;;;;;;;119.90;108.90;;;9.30;93.20;;;;;;5017717;28;20540;-79
2022/04/16 01:05:30;;;;;;;120.88;109.68;;;9.40;93.20;;;;;;5019117;28;20497;-79
2022/04/16 01:08:02;;;;;;;120.20;109.07;;;9.40;93.20;;;;;;5017653;28;20046;-78
2022/04/16 01:10:31;;;;;;;122.00;110.50;;;9.40;93.20;;;;;;5004835;28;20131;-79
2022/04/16 01:12:59;;;;;;;122.10;110.80;;;9.40;93.20;;;;;;5017806;28;20057;-79
2022/04/16 01:15:29;;;;;;;121.05;109.78;;;9.40;93.20;;;;;;5017827;28;20057;-79
2022/04/16 01:17:59;;;;;;;121.70;110.25;;;9.30;93.30;;;;;;5021676;28;20045;-79
2022/04/16 01:20:26;;;;;;;122.68;111.18;;;9.30;93.30;;;;;;5020623;28;20072;-79
2022/04/16 01:22:56;;;;;;;121.28;110.00;;;9.30;93.40;;;;;;5020615;28;20542;-79
2022/04/16 01:25:25;;;;;;;120.85;109.55;;;9.30;93.40;;;;;;5034370;28;20116;-79
2022/04/16 01:27:52;;;;;;;121.78;110.18;;;9.30;93.40;;;;;;5019284;28;20108;-79
2022/04/16 01:30:21;;;;;;;122.28;110.70;;;9.30;93.40;;;;;;5038107;28;20125;-79
2022/04/16 01:32:48;;;;;;;122.00;110.35;;;9.30;93.50;;;;;;5015283;28;20057;-78
2022/04/16 01:35:16;;;;;;;122.88;111.32;;;9.30;93.50;;;;;;5020710;28;20054;-79
2022/04/16 01:37:44;;;;;;;123.03;111.60;;;9.30;93.50;;;;;;5014982;28;20092;-79
2022/04/16 01:40:14;;;;;;;125.10;113.40;;;9.20;93.50;;;;;;5021984;28;20498;-78
2022/04/16 01:42:43;;;;;;;122.85;111.20;;;9.20;93.60;;;;;;5006366;28;20054;-79
2022/04/16 01:45:11;;;;;;;122.88;111.35;;;9.20;93.60;;;;;;5023011;28;20045;-78
2022/04/16 01:47:39;;;;;;;122.85;111.15;;;9.20;93.60;;;;;;5034196;28;20475;-79
2022/04/16 01:50:09;;;;;;;124.60;112.75;;;9.20;93.70;;;;;;5018548;28;20056;-79
2022/04/16 01:52:37;;;;;;;124.20;112.32;;;9.20;93.80;;;;;;5016876;28;20137;-79
2022/04/16 01:55:05;;;;;;;124.30;112.28;;;9.20;93.90;;;;;;5017124;28;20042;-78
2022/04/16 01:57:34;;;;;;;124.30;112.45;;;9.20;93.90;;;;;;5001319;28;20050;-79
2022/04/16 02:00:01;;;;;;;121.15;109.72;;;9.10;93.90;;;;;;5023483;28;20546;-79
2022/04/16 02:02:28;;;;;;;122.20;110.88;;;9.10;93.90;;;;;;5030413;28;20081;-78
2022/04/16 02:04:55;;;;;;;122.03;110.63;;;9.10;93.90;;;;;;5017211;28;20077;-78
2022/04/16 02:07:22;;;;;;;122.57;110.93;;;9.10;93.90;;;;;;5034795;28;20054;-78
2022/04/16 02:09:48;;;;;;;123.00;111.35;;;9.10;93.90;;;;;;5043626;28;20058;-79
2022/04/16 02:12:15;;;;;;;123.10;111.60;;;9.10;93.90;;;;;;5022172;28;20137;-79
2022/04/16 02:14:43;;;;;;;122.38;110.85;;;9.10;93.90;;;;;;5002416;28;20448;-78
2022/04/16 02:17:10;;;;;;;124.90;113.30;;;9.10;93.90;;;;;;5016767;28;20061;-79
2022/04/16 02:19:38;;;;;;;122.13;110.70;;;9.10;93.90;;;;;;5024723;28;20048;-78
2022/04/16 02:22:05;;;;;;;122.75;111.30;;;9.10;93.90;;;;;;5020374;28;20124;-79
2022/04/16 02:24:33;;;;;;;123.07;111.47;;;9.10;94.00;;;;;;5022448;28;20476;-79
2022/04/16 02:27:00;;;;;;;121.88;110.60;;;9.10;94.00;;;;;;5016498;28;20060;-78
2022/04/16 02:29:27;;;;;;;123.55;112.03;;;9.10;94.00;;;;;;5021533;28;20042;-79
2022/04/16 02:32:02;;;;;;;120.63;109.47;;;9.00;94.00;;;;;;5000294;28;20054;-79
2022/04/16 02:34:29;;;;;;;123.18;111.57;;;9.00;94.00;;;;;;5021138;28;20053;-79
2022/04/16 02:36:58;;;;;;;122.75;111.38;;;9.00;94.10;;;;;;5005342;28;20493;-78
2022/04/16 02:39:25;;;;;;;121.13;109.85;;;8.90;94.10;;;;;;5037624;28;20050;-79
2022/04/16 02:41:52;;;;;;;122.70;111.20;;;8.90;94.10;;;;;;5049234;28;20089;-79
2022/04/16 02:47:08;;;;;;;123.45;112.07;;;8.80;94.10;;;;;;5041883;28;20096;-78
2022/04/16 02:49:37;;;;;;;120.63;109.38;;;8.80;94.10;;;;;;5018473;28;20144;-79
2022/04/16 02:52:05;;;;;;;121.75;110.13;;;8.70;94.00;;;;;;5021292;28;20486;-79
2022/04/16 02:54:32;;;;;;;122.22;110.72;;;8.70;94.00;;;;;;5018594;28;20140;-78
2022/04/16 02:56:59;;;;;;;125.07;113.20;;;8.60;94.00;;;;;;5037738;28;20060;-78
2022/04/16 02:59:27;;;;;;;122.75;111.35;;;8.60;94.10;;;;;;5009386;28;20042;-78
2022/04/16 03:01:55;;;;;;;122.95;111.45;;;8.50;94.20;;;;;;5021217;28;20058;-78
2022/04/16 03:04:23;;;;;;;123.10;111.57;;;8.50;94.20;;;;;;5018744;28;20063;-78
2022/04/16 03:06:51;;;;;;;124.50;112.38;;;8.50;94.30;;;;;;5014496;28;20047;-78
2022/04/16 03:09:18;;;;;;;122.68;110.93;;;8.50;94.20;;;;;;5018529;28;20050;-79
2022/04/16 03:11:45;;;;;;;123.97;112.07;;;8.50;94.30;;;;;;5015887;28;20097;-79
2022/04/16 03:19:54;;;;;;;126.32;114.03;;;8.50;94.40;;;;;;4969872;28;20053;-78
2022/04/16 03:22:21;;;;;;;124.47;112.55;;;8.40;94.30;;;;;;4998192;28;20088;-78
2022/04/16 03:24:48;;;;;;;125.15;113.13;;;8.40;94.30;;;;;;4999327;28;20057;-79
2022/04/16 03:27:16;;;;;;;127.05;114.90;;;8.40;94.30;;;;;;5018201;28;20073;-78
2022/04/16 03:29:43;;;;;;;127.22;115.03;;;8.40;94.30;;;;;;5015698;28;20052;-78
2022/04/16 03:32:10;;;;;;;125.20;113.18;;;8.40;94.40;;;;;;5035546;28;20054;-78
2022/04/16 03:34:37;;;;;;;128.02;115.72;;;8.50;94.40;;;;;;5019597;28;20474;-78
2022/04/16 03:37:06;;;;;;;130.23;117.80;;;8.40;94.40;;;;;;5016353;28;20049;-78
2022/04/16 03:39:33;;;;;;;127.45;115.43;;;8.40;94.40;;;;;;5018795;28;20053;-78
2022/04/16 03:42:00;;;;;;;125.28;113.30;;;8.50;94.40;;;;;;5021099;28;20065;-79
2022/04/16 03:44:27;;;;;;;126.75;114.57;;;8.40;94.40;;;;;;5017900;28;20050;-78
2022/04/16 03:46:54;;;;;;;127.93;115.60;;;8.40;94.40;;;;;;5020121;28;20132;-78
2022/04/16 03:49:20;;;;;;;127.28;115.07;;;8.40;94.40;;;;;;5017685;28;20525;-78
2022/04/16 03:51:47;;;;;;;126.43;114.22;;;8.40;94.50;;;;;;5019526;28;20061;-79
2022/04/16 04:00:03;;;;;;;126.45;114.25;;;8.40;94.50;;;;;;5008389;28;20042;-78
2022/04/16 04:02:38;;;;;;;127.85;115.43;;;8.40;94.60;;;;;;5019914;28;20058;-78
2022/04/16 04:05:06;;;;;;;128.68;115.97;;;8.40;94.70;;;;;;5022631;28;20136;-79
2022/04/16 04:07:33;;;;;;;125.78;113.68;;;8.40;94.80;;;;;;5018761;28;20053;-78
2022/04/16 04:10:02;;;;;;;127.38;115.25;;;8.40;94.90;;;;;;5011149;28;20046;-79
2022/04/16 04:12:29;;;;;;;128.30;116.15;;;8.40;95.00;;;;;;5018586;28;20168;-78
2022/04/16 04:14:56;;;;;;;127.70;115.55;;;8.30;95.00;;;;;;5002135;28;20132;-78
2022/04/16 04:17:23;;;;;;;128.82;116.53;;;8.30;95.10;;;;;;5018710;28;20136;-78
2022/04/16 04:19:49;;;;;;;130.10;117.50;;;8.30;95.20;;;;;;5015803;28;20129;-78
2022/04/16 04:22:17;;;;;;;131.35;118.63;;;8.30;95.30;;;;;;5018156;28;20056;-78
2022/04/16 04:24:45;;;;;;;131.40;118.90;;;8.30;95.30;;;;;;5014886;28;20050;-78
2022/04/16 04:27:13;;;;;;;130.88;118.20;;;8.30;95.40;;;;;;5014399;28;20551;-79
2022/04/16 04:29:41;;;;;;;129.88;117.15;;;8.30;95.50;;;;;;5019417;28;20050;-78
2022/04/16 04:32:08;;;;;;;131.38;118.38;;;8.30;95.70;;;;;;5016436;28;20057;-78
2022/04/16 04:34:36;;;;;;;131.90;119.10;;;8.30;95.90;;;;;;5033686;28;20137;-78
2022/04/16 04:37:04;;;;;;;132.13;119.28;;;8.30;96.10;;;;;;5020489;28;20058;-78
2022/04/16 04:39:31;;;;;;;130.10;117.55;;;8.20;96.20;;;;;;5014648;28;20050;-78
2022/04/16 04:41:58;;;;;;;128.90;116.00;;;8.20;96.40;;;;;;5032764;28;20132;-78
2022/04/16 04:44:26;;;;;;;129.25;117.03;;;8.20;96.50;;;;;;5017113;28;20076;-78
2022/04/16 04:46:53;;;;;;;130.13;117.53;;;8.20;96.60;;;;;;5018906;28;20575;-78
2022/04/16 04:49:20;;;;;;;130.02;117.50;;;8.20;96.50;;;;;;5016923;28;20046;-79
2022/04/16 04:51:47;;;;;;;132.20;119.25;;;8.20;96.50;;;;;;5040394;28;20173;-78
2022/04/16 04:54:14;;;;;;;130.00;117.47;;;8.20;96.70;;;;;;5019081;28;20526;-79
2022/04/16 04:56:41;;;;;;;133.48;120.55;;;8.20;96.70;;;;;;5027228;28;20056;-78
2022/04/16 04:59:08;;;;;;;132.60;119.68;;;8.30;96.80;;;;;;5014127;28;20044;-78
2022/04/16 05:01:36;;;;;;;129.50;117.00;;;8.30;96.80;;;;;;5013335;28;20058;-78
2022/04/16 05:04:03;;;;;;;130.52;117.88;;;8.30;96.90;;;;;;5015276;28;20141;-78
2022/04/16 05:06:30;;;;;;;132.23;119.18;;;8.30;96.80;;;;;;4993547;28;20050;-78
2022/04/16 05:08:57;;;;;;;129.15;116.65;;;8.40;96.90;;;;;;5031885;28;20050;-78
2022/04/16 05:11:24;;;;;;;129.00;116.47;;;8.40;97.00;;;;;;5014032;28;20054;-78
2022/04/16 05:13:51;;;;;;;129.05;116.47;;;8.40;97.00;;;;;;4998057;28;20124;-78
2022/04/16 05:16:18;;;;;;;;;;;8.40;97.10;;;;;;5012925;28;20052;-79
2022/04/16 05:18:46;;;;;;;131.27;118.53;;;8.40;97.20;;;;;;5014466;28;19929;-78
2022/04/16 05:21:13;;;;;;;131.48;118.57;;;8.40;97.10;;;;;;5016981;28;20133;-78
2022/04/16 05:23:40;;;;;;;132.15;119.63;;;8.40;97.00;;;;;;5017232;28;20196;-78
2022/04/16 05:26:09;;;;;;;130.93;118.43;;;8.40;97.20;;;;;;5017442;28;20113;-79
2022/04/16 05:28:36;;;;;;;130.30;117.90;;;8.40;97.10;;;;;;5015341;28;20053;-79
2022/04/16 05:31:04;;;;;;;130.35;117.95;;;8.40;97.20;;;;;;5008082;28;20109;-77
2022/04/16 05:36:18;;;;;;;132.10;119.60;;;8.40;97.10;;;;;;5006159;28;20112;-77
2022/04/16 05:38:45;;;;;;;131.10;118.78;;;8.40;97.10;;;;;;5012834;28;20050;-77
2022/04/16 05:41:12;;;;;;;127.82;115.35;;;8.40;97.10;;;;;;5014001;28;20475;-77
2022/04/16 05:43:39;;;;;;;127.82;115.68;;;8.50;97.20;;;;;;5032256;28;20141;-77
2022/04/16 05:46:06;;;;;;;129.07;116.85;;;8.50;97.10;;;;;;5014943;28;20104;-77
2022/04/16 05:48:33;;;;;;;128.05;115.95;;;8.50;97.20;;;;;;5030777;28;20630;-77
2022/04/16 05:51:00;;;;;;;127.22;114.72;;;8.50;97.20;;;;;;5013877;28;20497;-77
2022/04/16 05:53:28;;;;;;;126.80;114.50;;;8.50;97.10;;;;;;5014436;28;20060;-78
2022/04/16 05:55:55;;;;;;;125.05;112.95;;;8.50;97.10;;;;;;5032233;28;20060;-78
2022/04/16 05:58:22;;;;;;;124.15;112.25;;;8.50;97.10;;;;;;5032018;28;20050;-77
2022/04/16 06:00:49;;;;;;;124.72;112.70;;;8.60;97.10;;;;;;5014199;28;20902;-77
2022/04/16 06:03:16;;;;;;;127.40;115.25;;;8.60;97.10;;;;;;5014392;28;20049;-77
2022/04/16 06:05:43;;;;;;;129.23;116.78;;;8.60;97.10;;;;;;5011545;28;20094;-78
2022/04/16 06:08:10;;;;;;;126.20;114.20;;;8.70;97.20;;;;;;5012888;28;20052;-78
2022/04/16 06:10:38;;;;;;;;;;;8.70;97.10;;;;;;5014614;28;20042;-77
2022/04/16 06:13:05;;;;;;;126.30;114.22;;;8.70;97.10;;;;;;5013869;28;20380;-78
2022/04/16 06:15:33;;;;;;;124.13;112.28;;;8.70;97.10;;;;;;5033079;28;20054;-77
2022/04/16 06:18:00;;;;;;;126.10;114.10;;;8.70;97.10;;;;;;5013992;28;20057;-76
2022/04/16 06:20:26;;;;;;;;;;;8.80;97.10;;;;;;5013931;28;20791;-78
2022/04/16 06:22:53;;;;;;;125.57;113.70;;;8.70;96.90;;;;;;5031664;28;20023;-78
2022/04/16 06:25:20;;;;;;;122.68;110.88;;;8.80;96.90;;;;;;5015955;28;20144;-77
2022/04/16 06:27:48;;;;;;;;;;;8.80;96.90;;;;;;5015411;28;20050;-77
2022/04/16 06:30:15;;;;;;;124.13;112.18;;;8.80;96.70;;;;;;5014637;28;20822;-76
2022/04/16 06:32:42;;;;;;;123.70;111.80;;;8.80;96.70;;;;;;5025069;28;20056;-76
2022/04/16 06:35:12;;;;;;;127.45;115.35;;;8.80;96.70;;;;;;5011671;28;20049;-77
2022/04/16 06:37:40;;;;;;;122.55;110.75;;;8.80;96.90;;;;;;5013659;28;20099;-77
2022/04/16 06:40:08;;;;;;;127.38;115.35;;;8.80;96.80;;;;;;5011336;28;20061;-77
2022/04/16 06:42:35;;;;;;;123.40;111.78;;;8.80;96.80;;;;;;5032029;28;20048;-78
2022/04/16 06:45:04;;;;;;;122.55;110.82;;;8.80;96.80;;;;;;4992505;28;20046;-78
2022/04/16 06:47:31;;;;;;;120.60;109.10;;;8.80;96.70;;;;;;5012198;28;20532;-78
2022/04/16 06:49:58;;;;;;;123.15;111.28;;;8.90;96.70;;;;;;5015953;28;20064;-77
2022/04/16 06:52:24;;;;;;;122.07;110.25;;;8.90;96.70;;;;;;5015808;28;20056;-78
2022/04/16 06:54:51;;;;;;;122.05;110.45;;;8.90;96.70;;;;;;5033505;28;20049;-78
2022/04/16 06:57:18;;;;;;;123.03;111.28;;;8.90;96.70;;;;;;5014069;28;20042;-77
2022/04/16 06:59:45;;;;;;;123.07;111.43;;;8.90;96.80;;;;;;5014596;28;20057;-78
2022/04/16 07:02:13;;;;;;;121.72;110.00;;;9.00;96.80;;;;;;5015622;28;20050;-77
2022/04/16 07:04:43;;;;;;;125.68;113.80;;;9.00;96.80;;;;;;5014177;28;20050;-77
2022/04/16 07:07:10;;;;;;;128.20;116.30;;;9.00;96.70;;;;;;5015187;28;20046;-79
2022/04/16 07:09:39;;;;;;;124.63;112.97;;;9.00;96.70;;;;;;5015770;28;20164;-77
2022/04/16 07:12:08;;;;;;;123.68;112.20;;;9.10;96.70;;;;;;5015105;28;20053;-77
2022/04/16 07:14:35;;;;;;;120.68;108.50;;;9.10;96.60;;;;;;5014212;28;20059;-82
2022/04/16 07:17:02;;;;;;;126.22;114.13;;;9.20;96.50;;;;;;4998059;28;20050;-82
2022/04/16 07:19:31;;;;;;;122.47;110.88;;;9.20;96.80;;;;;;4995197;28;20061;-76
2022/04/16 07:21:58;;;;;;;121.47;110.00;;;9.20;96.60;;;;;;5015072;28;20049;-76
2022/04/16 07:24:26;;;;;;;120.97;109.60;;;9.30;96.60;;;;;;5012992;28;20054;-76
2022/04/16 07:26:54;;;;;;;131.02;119.03;;;9.30;96.50;;;;;;5032785;28;20064;-76
2022/04/16 07:29:21;;;;;;;123.13;111.53;;;9.30;96.50;;;;;;5012429;28;20096;-76
2022/04/16 07:31:48;;;;;;;120.57;109.07;;;9.30;96.50;;;;;;5014551;28;20053;-76
2022/04/16 07:34:15;;;;;;;120.60;109.30;;;9.30;96.50;;;;;;5014970;28;20054;-77
2022/04/16 07:36:43;;;;;;;123.40;112.03;;;9.40;96.40;;;;;;5008164;28;20046;-76
2022/04/16 07:39:11;;;;;;;123.53;111.93;;;9.50;96.50;;;;;;5011312;28;20064;-76
2022/04/16 07:41:38;;;;;;;120.95;109.20;;;9.50;96.40;;;;;;5012784;28;20047;-76
2022/04/16 07:44:05;;;;;;;122.97;111.50;;;9.50;96.40;;;;;;5010987;28;20061;-76
2022/04/16 07:46:33;;;;;;;122.65;111.25;;;9.60;96.40;;;;;;5011708;28;20436;-75
2022/04/16 07:49:01;;;;;;;121.15;109.65;;;9.60;96.30;;;;;;5030839;28;20054;-76
2022/04/16 07:51:29;;;;;;;119.38;108.10;;;9.60;96.30;;;;;;5013658;28;20432;-77
2022/04/16 07:53:58;;;;;;;117.63;106.55;;;9.70;96.30;;;;;;5013824;28;20054;-76
2022/04/16 07:56:26;;;;;;;116.82;105.90;;;9.80;96.30;;;;;;5029990;28;20077;-76
2022/04/16 07:58:54;;;;;;;117.82;106.88;;;9.80;96.00;;;;;;5031068;28;20056;-76
2022/04/16 08:01:21;;;;;;;118.15;107.25;;;9.90;95.90;;;;;;5013362;28;20485;-77
2022/04/16 08:03:48;;;;;;;118.40;107.30;;;9.90;95.90;;;;;;4996979;28;20050;-76
2022/04/16 08:06:14;;;;;;;119.40;108.40;;;9.90;95.80;;;;;;5028713;28;20049;-76
2022/04/16 08:08:42;;;;;;;119.03;108.00;;;10.00;95.70;;;;;;5010225;28;20057;-78
2022/04/16 08:11:10;;;;;;;118.80;107.78;;;10.10;95.80;;;;;;5031629;28;20078;-77
2022/04/16 08:13:37;;;;;;;122.30;111.28;;;10.10;95.70;;;;;;5012037;28;20963;-77
2022/04/16 08:16:05;;;;;;;119.05;107.95;;;10.20;95.60;;;;;;5012177;28;20532;-77
2022/04/16 08:18:32;;;;;;;121.28;110.22;;;10.20;95.40;;;;;;5009325;28;20050;-77
2022/04/16 08:20:59;;;;;;;117.50;106.63;;;10.30;95.20;;;;;;5029545;28;20566;-77
2022/04/16 08:23:26;;;;;;;118.30;107.32;;;10.40;95.20;;;;;;5012098;28;20085;-77
2022/04/16 08:25:53;;;;;;;115.97;104.78;;;10.40;95.00;;;;;;5012844;28;20054;-76
2022/04/16 08:28:21;;;;;;;119.18;108.35;;;10.40;94.70;;;;;;5013149;28;20050;-76
2022/04/16 08:30:49;;;;;;;113.70;103.25;;;10.40;94.50;;;;;;5011656;28;20497;-81
2022/04/16 08:33:17;;;;;;;112.13;101.85;;;10.50;94.60;;;;;;5006495;28;20050;-78
2022/04/16 08:35:44;;;;;;;113.88;103.38;;;10.50;94.60;;;;;;5014356;28;20050;-76
2022/04/16 08:38:12;;;;;;;114.20;103.70;;;10.60;94.70;;;;;;4994089;28;20052;-77
2022/04/16 08:40:39;;;;;;;114.28;103.65;;;10.70;94.40;;;;;;5012624;28;20066;-76
2022/04/16 08:43:08;;;;;;;112.10;102.00;;;10.70;94.10;;;;;;5013827;28;20054;-77
2022/04/16 08:45:38;;;;;;;115.55;105.13;;;10.80;92.20;;;;;;5014210;28;20104;-77
2022/04/16 08:48:06;;;;;;;117.10;106.70;;;10.80;92.20;;;;;;5014094;28;20446;-79
2022/04/16 08:50:34;;;;;;;112.65;102.30;;;10.80;92.40;;;;;;4988203;28;20141;-76
2022/04/16 08:53:01;;;;;;;113.20;103.07;;;10.80;92.50;;;;;;5012752;28;20105;-77
2022/04/16 08:55:29;;;;;;;111.32;101.22;;;10.90;92.20;;;;;;4997069;28;20068;-77
2022/04/16 08:57:56;;;;;;;116.20;105.97;;;10.90;92.30;;;;;;5029402;28;20504;-77
2022/04/16 09:00:23;;;;;;;116.25;105.47;;;11.00;91.50;;;;;;5015024;28;20125;-76
2022/04/16 09:02:54;;;;;;;112.72;102.53;;;11.00;90.80;;;;;;5015751;28;20085;-77
2022/04/16 09:05:21;;;;;;;113.10;102.88;;;11.10;90.30;;;;;;5012475;28;20042;-77
2022/04/16 09:07:49;;;;;;;114.28;104.07;;;11.10;90.90;;;;;;5014198;28;20054;-78
2022/04/16 09:10:17;;;;;;;114.80;102.85;;;11.10;90.70;;;;;;5015874;28;20050;-77
2022/04/16 09:12:45;;;;;;;112.68;102.68;;;11.20;90.40;;;;;;5031738;28;20501;-77
2022/04/16 09:15:14;;;;;;;119.90;103.15;;;11.20;89.50;;;;;;5015684;28;20049;-78
2022/04/16 09:17:42;;;;;;;111.65;101.60;;;11.30;90.50;;;;;;4996412;28;20064;-78
2022/04/16 09:20:15;;;;;;;111.38;101.43;;;11.40;89.20;;;;;;5033779;28;20050;-77
2022/04/16 09:22:48;;;;;;;112.03;102.15;;;11.40;89.30;;;;;;5016499;28;20054;-77
2022/04/16 09:25:17;;;;;;;113.28;102.80;;;11.50;87.40;;;;;;5015996;28;20790;-77
2022/04/16 09:27:46;;;;;;;112.45;102.55;;;11.50;87.50;;;;;;5031974;28;20217;-77
2022/04/16 09:30:14;;;;;;;113.95;103.65;;;11.60;86.40;;;;;;5032723;28;20499;-77
2022/04/16 09:32:45;;;;;;;113.28;103.05;;;11.60;87.10;;;;;;5029960;28;20058;-77
2022/04/16 09:35:38;;;;;;;114.43;103.97;;;11.70;84.80;;;;;;5016508;28;20536;-78
2022/04/16 09:38:07;;;;;;;111.97;101.93;;;11.80;86.70;;;;;;4977994;28;20140;-78
2022/04/16 09:40:35;;;;;;;112.05;101.80;;;11.80;87.20;;;;;;5017307;28;20147;-78
2022/04/16 09:43:04;;;;;;;112.00;101.90;;;11.90;86.20;;;;;;5016319;28;20083;-78
2022/04/16 09:45:32;;;;;;;116.18;105.75;;;12.00;82.70;;;;;;5026551;28;20054;-77
2022/04/16 09:48:00;;;;;;;115.82;104.18;;;12.00;84.50;;;;;;5015531;28;20535;-78
2022/04/16 09:50:29;;;;;;;113.22;102.90;;;12.10;84.60;;;;;;5033950;28;20054;-78
2022/04/16 09:52:59;;;;;;;112.07;102.07;;;12.10;85.20;;;;;;5001287;28;20045;-78
2022/04/16 09:55:28;;;;;;;112.07;102.07;;;12.20;85.40;;;;;;4999798;28;20042;-78
2022/04/16 09:57:58;;;;;;;117.13;106.82;;;12.30;84.20;;;;;;5015343;28;20521;-77
2022/04/16 10:00:26;;;;;;;114.60;104.47;;;12.30;81.90;;;;;;5016138;28;20050;-76
2022/04/16 10:02:53;;;;;;;114.78;104.47;;;12.40;80.30;;;;;;5016179;28;20491;-78
2022/04/16 10:05:21;;;;;;;114.95;104.85;;;12.40;80.40;;;;;;5016132;28;20167;-78
2022/04/16 10:07:49;;;;;;;114.93;104.22;;;12.50;79.80;;;;;;5015471;28;20056;-78
2022/04/16 10:10:25;;;;;;;113.95;103.78;;;12.50;79.80;;;;;;5034958;28;20057;-78
2022/04/16 10:13:03;;;;;;;114.30;104.30;;;12.60;81.20;;;;;;5016774;28;20090;-78
2022/04/16 10:15:44;;;;;;;115.05;104.95;;;12.60;79.50;;;;;;5016967;28;20089;-78
2022/04/16 10:18:12;;;;;;;114.55;104.55;;;12.70;79.90;;;;;;5034311;28;20136;-78
2022/04/16 10:20:55;;;;;;;115.35;105.05;;;12.80;79.30;;;;;;5016765;28;20077;-78
2022/04/16 10:23:27;;;;;;;114.38;104.38;;;12.80;74.60;;;;;;5015936;28;20131;-77
2022/04/16 10:26:02;;;;;;;113.82;103.63;;;12.90;75.90;;;;;;5013635;28;20511;-77
2022/04/16 10:28:34;;;;;;;114.88;103.80;;;13.00;71.90;;;;;;5015594;28;20513;-77
2022/04/16 10:31:01;;;;;;;114.28;104.25;;;13.00;69.30;;;;;;5015775;28;20077;-81
2022/04/16 10:33:29;;;;;;;114.85;104.82;;;13.00;67.20;;;;;;5015949;28;20127;-79
2022/04/16 10:35:58;;;;;;;114.78;104.88;;;13.00;68.60;;;;;;5016982;28;20081;-78
2022/04/16 10:38:26;;;;;;;115.72;104.75;;;13.10;68.60;;;;;;5015431;28;20053;-78
2022/04/16 10:40:58;;;;;;;114.68;104.78;;;13.10;65.40;;;;;;4999927;28;20050;-78
2022/04/16 10:43:32;;;;;;;114.15;104.35;;;13.10;67.30;;;;;;5034317;28;20132;-81
2022/04/16 10:46:03;;;;;;;115.00;104.60;;;13.20;67.50;;;;;;5032942;28;20046;-77
2022/04/16 10:48:33;;;;;;;117.05;107.18;;;13.20;65.90;;;;;;5012496;28;20045;-77
2022/04/16 10:51:01;;;;;;;113.90;103.72;;;13.30;65.20;;;;;;5014404;28;20319;-77
2022/04/16 10:53:29;;;;;;;113.00;103.30;;;13.30;62.30;;;;;;5014894;28;20128;-78
2022/04/16 10:56:07;;;;;;;111.95;102.35;;;13.40;62.60;;;;;;5015768;28;20050;-75
2022/04/16 10:58:34;;;;;;;114.03;104.22;;;13.40;60.10;;;;;;5014847;28;20049;-78
2022/04/16 11:01:06;;;;;;;112.70;102.90;;;13.50;60.40;;;;;;5015501;28;20452;-79
2022/04/16 11:03:33;;;;;;;114.22;104.32;;;13.50;62.20;;;;;;5016099;28;20057;-78
2022/04/16 11:06:02;;;;;;;116.43;106.00;;;13.60;59.80;;;;;;5014751;28;20060;-80
2022/04/16 11:08:29;;;;;;;120.25;109.95;;;13.60;56.90;;;;;;5014140;28;20056;-73
2022/04/16 11:10:59;;;;;;;123.75;113.35;;;13.70;58.10;;;;;;5015786;28;20046;-75
2022/04/16 11:13:27;;;;;;;118.47;108.47;;;13.70;58.50;;;;;;5033114;28;20053;-73
2022/04/16 11:15:55;;;;;;;161.27;110.00;;;13.80;58.50;;;;;;5033464;28;20054;-75
2022/04/16 11:18:22;;;;;;;115.10;104.25;;;13.80;58.60;;;;;;5032599;28;20058;-73
2022/04/16 11:20:56;;;;;;;115.07;105.28;;;13.90;57.10;;;;;;5015501;28;20056;-74
2022/04/16 11:23:26;;;;;;;114.85;105.03;;;14.00;54.20;;;;;;5016397;28;20058;-72
2022/04/16 11:34:20;;;;;;;115.10;105.18;;;14.30;53.50;;;;;;5015688;28;20054;-77
2022/04/16 11:36:50;;;;;;;122.95;106.35;;;14.30;53.80;;;;;;5015443;28;20046;-72
2022/04/16 11:39:18;;;;;;;113.55;104.05;;;14.40;54.20;;;;;;5033145;28;20527;-73
2022/04/16 11:41:51;;;;;;;115.53;105.53;;;14.50;53.10;;;;;;5033654;28;20068;-75
2022/04/16 11:44:41;;;;;;;115.45;105.75;;;14.60;54.40;;;;;;5033178;28;20132;-74
2022/04/16 11:47:10;;;;;;;115.00;105.20;;;14.60;54.30;;;;;;5030373;28;20531;-78
2022/04/16 11:49:37;;;;;;;116.93;107.03;;;14.70;54.10;;;;;;5011150;28;20500;-76
2022/04/16 11:52:05;;;;;;;116.65;106.97;;;14.80;51.20;;;;;;5013827;28;20042;-77
2022/04/16 11:54:33;;;;;;;117.22;107.63;;;14.90;51.20;;;;;;5032836;28;20107;-77
2022/04/16 11:57:00;;;;;;;122.32;111.82;;;14.90;49.80;;;;;;5014512;28;20049;-77
2022/04/16 11:59:29;;;;;;;116.55;107.05;;;15.00;48.60;;;;;;5013999;28;20133;-78
2022/04/16 12:02:07;;;;;;;115.45;105.95;;;15.00;47.40;;;;;;5014599;28;20060;-77
2022/04/16 12:04:39;;;;;;;116.63;107.10;;;15.00;48.80;;;;;;5014607;28;20050;-79
2022/04/16 12:07:11;;;;;;;119.80;110.13;;;15.10;48.50;;;;;;4995379;28;20747;-76
2022/04/16 12:09:38;;;;;;;116.28;106.78;;;15.10;49.10;;;;;;5020392;28;20054;-78
2022/04/16 12:12:06;;;;;;;117.30;107.43;;;15.20;49.00;;;;;;5013998;28;20058;-77
2022/04/16 12:14:44;;;;;;;118.05;108.55;;;15.30;47.90;;;;;;5031681;28;20504;-78
2022/04/16 12:17:11;;;;;;;118.90;109.28;;;15.40;50.00;;;;;;4996271;28;20050;-75
2022/04/16 12:19:38;;;;;;;118.85;108.88;;;15.50;49.20;;;;;;5011832;28;20555;-79
2022/04/16 12:22:05;;;;;;;117.53;108.20;;;15.60;48.40;;;;;;5031768;28;20054;-80
2022/04/16 12:24:32;;;;;;;121.47;111.60;;;15.60;47.40;;;;;;4996888;28;20057;-79
2022/04/16 12:27:00;;;;;;;120.97;111.35;;;15.60;47.60;;;;;;5010782;28;20612;-79
2022/04/16 12:29:29;;;;;;;119.05;108.68;;;15.70;48.60;;;;;;5012922;28;20053;-79
2022/04/16 12:31:58;;;;;;;118.63;109.13;;;15.80;48.90;;;;;;5013353;28;20061;-79
2022/04/16 12:34:26;;;;;;;119.03;108.82;;;15.90;48.00;;;;;;5014002;28;20562;-79
2022/04/16 12:36:53;;;;;;;118.88;109.18;;;15.90;47.00;;;;;;5013800;28;20208;-79
2022/04/16 12:39:20;;;;;;;119.07;109.75;;;15.90;47.30;;;;;;5031864;28;20058;-79
2022/04/16 12:41:47;;;;;;;122.38;112.55;;;16.00;47.30;;;;;;5013653;28;20512;-80
2022/04/16 12:44:14;;;;;;;120.68;111.15;;;16.00;47.10;;;;;;5005575;28;20125;-79
2022/04/16 12:46:41;;;;;;;121.10;111.30;;;16.10;47.40;;;;;;4945332;28;20069;-80